sensor_id;sensor_type;location;lat;lon;timestamp;temperature;humidity
52697;DHT22;38593;52.670;6.286;2022-07-18T00:00:10;17.70;96.60
52697;DHT22;38593;52.670;6.286;2022-07-18T00:02:36;17.70;96.70
52697;DHT22;38593;52.670;6.286;2022-07-18T00:05:02;17.60;96.80
52697;DHT22;38593;52.670;6.286;2022-07-18T00:07:28;17.60;96.80
52697;DHT22;38593;52.670;6.286;2022-07-18T00:09:53;17.60;96.90
52697;DHT22;38593;52.670;6.286;2022-07-18T00:12:19;17.60;96.90
52697;DHT22;38593;52.670;6.286;2022-07-18T00:14:44;17.60;97.00
52697;DHT22;38593;52.670;6.286;2022-07-18T00:17:10;17.50;97.00
52697;DHT22;38593;52.670;6.286;2022-07-18T00:19:36;17.50;97.20
52697;DHT22;38593;52.670;6.286;2022-07-18T00:22:02;17.50;97.20
52697;DHT22;38593;52.670;6.286;2022-07-18T00:24:28;17.40;97.20
52697;DHT22;38593;52.670;6.286;2022-07-18T00:26:53;17.40;97.30
52697;DHT22;38593;52.670;6.286;2022-07-18T00:29:19;17.30;97.50
52697;DHT22;38593;52.670;6.286;2022-07-18T00:31:44;17.30;97.60
52697;DHT22;38593;52.670;6.286;2022-07-18T00:34:10;17.30;97.60
52697;DHT22;38593;52.670;6.286;2022-07-18T00:36:36;17.20;97.70
52697;DHT22;38593;52.670;6.286;2022-07-18T00:39:02;17.20;97.80
52697;DHT22;38593;52.670;6.286;2022-07-18T00:41:27;17.20;97.90
52697;DHT22;38593;52.670;6.286;2022-07-18T00:43:53;17.10;98.00
52697;DHT22;38593;52.670;6.286;2022-07-18T00:46:22;17.10;98.00
52697;DHT22;38593;52.670;6.286;2022-07-18T00:48:48;17.00;98.10
52697;DHT22;38593;52.670;6.286;2022-07-18T00:51:14;17.00;98.20
52697;DHT22;38593;52.670;6.286;2022-07-18T00:53:39;17.00;98.20
52697;DHT22;38593;52.670;6.286;2022-07-18T00:56:05;17.00;98.20
52697;DHT22;38593;52.670;6.286;2022-07-18T00:58:31;17.00;98.30
52697;DHT22;38593;52.670;6.286;2022-07-18T01:00:57;16.90;98.40
52697;DHT22;38593;52.670;6.286;2022-07-18T01:03:42;16.90;98.50
52697;DHT22;38593;52.670;6.286;2022-07-18T01:06:07;16.90;98.50
52697;DHT22;38593;52.670;6.286;2022-07-18T01:08:33;16.90;98.60
52697;DHT22;38593;52.670;6.286;2022-07-18T01:11:00;16.90;98.60
52697;DHT22;38593;52.670;6.286;2022-07-18T01:13:26;16.90;98.70
52697;DHT22;38593;52.670;6.286;2022-07-18T01:15:52;16.80;98.70
52697;DHT22;38593;52.670;6.286;2022-07-18T01:18:17;16.80;98.80
52697;DHT22;38593;52.670;6.286;2022-07-18T01:20:43;16.80;99.10
52697;DHT22;38593;52.670;6.286;2022-07-18T01:23:08;16.80;98.90
52697;DHT22;38593;52.670;6.286;2022-07-18T01:25:34;16.80;99.00
52697;DHT22;38593;52.670;6.286;2022-07-18T01:27:59;16.80;99.10
52697;DHT22;38593;52.670;6.286;2022-07-18T01:30:25;16.70;99.10
52697;DHT22;38593;52.670;6.286;2022-07-18T01:32:55;16.70;99.10
52697;DHT22;38593;52.670;6.286;2022-07-18T01:35:21;16.70;99.20
52697;DHT22;38593;52.670;6.286;2022-07-18T01:37:48;16.70;99.20
52697;DHT22;38593;52.670;6.286;2022-07-18T01:40:14;16.60;99.30
52697;DHT22;38593;52.670;6.286;2022-07-18T01:42:39;16.60;99.30
52697;DHT22;38593;52.670;6.286;2022-07-18T01:45:05;16.60;99.40
52697;DHT22;38593;52.670;6.286;2022-07-18T01:47:31;16.60;99.40
52697;DHT22;38593;52.670;6.286;2022-07-18T01:49:56;16.60;99.40
52697;DHT22;38593;52.670;6.286;2022-07-18T01:52:21;16.60;99.50
52697;DHT22;38593;52.670;6.286;2022-07-18T01:54:47;16.60;99.60
52697;DHT22;38593;52.670;6.286;2022-07-18T01:57:12;16.50;99.50
52697;DHT22;38593;52.670;6.286;2022-07-18T01:59:38;16.50;99.70
52697;DHT22;38593;52.670;6.286;2022-07-18T02:02:04;16.50;99.70
52697;DHT22;38593;52.670;6.286;2022-07-18T02:04:29;16.50;99.70
52697;DHT22;38593;52.670;6.286;2022-07-18T02:07:13;16.50;99.90
52697;DHT22;38593;52.670;6.286;2022-07-18T02:09:39;16.40;99.90
52697;DHT22;38593;52.670;6.286;2022-07-18T02:12:05;16.40;99.90
52697;DHT22;38593;52.670;6.286;2022-07-18T02:14:30;16.40;99.90
52697;DHT22;38593;52.670;6.286;2022-07-18T02:16:56;16.40;99.90
52697;DHT22;38593;52.670;6.286;2022-07-18T02:19:21;16.40;99.90
52697;DHT22;38593;52.670;6.286;2022-07-18T02:21:47;16.30;99.90
52697;DHT22;38593;52.670;6.286;2022-07-18T02:24:12;16.30;99.90
52697;DHT22;38593;52.670;6.286;2022-07-18T02:26:38;16.30;99.90
52697;DHT22;38593;52.670;6.286;2022-07-18T02:29:03;16.20;99.90
52697;DHT22;38593;52.670;6.286;2022-07-18T02:31:29;16.20;99.90
52697;DHT22;38593;52.670;6.286;2022-07-18T02:33:54;16.20;99.90
52697;DHT22;38593;52.670;6.286;2022-07-18T02:36:20;16.20;99.90
52697;DHT22;38593;52.670;6.286;2022-07-18T02:38:45;16.10;99.90
52697;DHT22;38593;52.670;6.286;2022-07-18T02:41:11;16.10;99.90
52697;DHT22;38593;52.670;6.286;2022-07-18T02:43:36;16.10;99.90
52697;DHT22;38593;52.670;6.286;2022-07-18T02:46:02;16.10;99.90
52697;DHT22;38593;52.670;6.286;2022-07-18T02:48:28;16.00;99.90
52697;DHT22;38593;52.670;6.286;2022-07-18T02:50:54;16.00;99.90
52697;DHT22;38593;52.670;6.286;2022-07-18T02:53:19;16.00;99.90
52697;DHT22;38593;52.670;6.286;2022-07-18T02:55:48;16.00;99.90
52697;DHT22;38593;52.670;6.286;2022-07-18T02:58:14;16.00;99.90
52697;DHT22;38593;52.670;6.286;2022-07-18T03:00:39;15.90;99.90
52697;DHT22;38593;52.670;6.286;2022-07-18T03:03:05;15.90;99.90
52697;DHT22;38593;52.670;6.286;2022-07-18T03:05:31;15.90;99.90
52697;DHT22;38593;52.670;6.286;2022-07-18T03:07:56;15.90;99.90
52697;DHT22;38593;52.670;6.286;2022-07-18T03:10:22;15.90;99.90
52697;DHT22;38593;52.670;6.286;2022-07-18T03:12:47;15.90;99.90
52697;DHT22;38593;52.670;6.286;2022-07-18T03:15:13;15.90;99.90
52697;DHT22;38593;52.670;6.286;2022-07-18T03:17:38;15.80;99.90
52697;DHT22;38593;52.670;6.286;2022-07-18T03:20:04;15.80;99.90
52697;DHT22;38593;52.670;6.286;2022-07-18T03:22:30;15.80;99.90
52697;DHT22;38593;52.670;6.286;2022-07-18T03:24:55;15.90;99.90
52697;DHT22;38593;52.670;6.286;2022-07-18T03:27:21;15.80;99.90
52697;DHT22;38593;52.670;6.286;2022-07-18T03:29:46;15.80;99.90
52697;DHT22;38593;52.670;6.286;2022-07-18T03:32:12;15.80;99.90
52697;DHT22;38593;52.670;6.286;2022-07-18T03:34:37;15.80;99.90
52697;DHT22;38593;52.670;6.286;2022-07-18T03:37:03;15.80;99.90
52697;DHT22;38593;52.670;6.286;2022-07-18T03:39:28;15.90;99.90
52697;DHT22;38593;52.670;6.286;2022-07-18T03:41:54;15.80;99.90
52697;DHT22;38593;52.670;6.286;2022-07-18T03:44:19;15.80;99.90
52697;DHT22;38593;52.670;6.286;2022-07-18T03:46:45;15.80;99.90
52697;DHT22;38593;52.670;6.286;2022-07-18T03:49:10;15.80;99.90
52697;DHT22;38593;52.670;6.286;2022-07-18T03:51:36;15.80;99.90
52697;DHT22;38593;52.670;6.286;2022-07-18T03:54:01;15.80;99.90
52697;DHT22;38593;52.670;6.286;2022-07-18T03:56:27;15.80;99.90
52697;DHT22;38593;52.670;6.286;2022-07-18T03:58:53;15.80;99.90
52697;DHT22;38593;52.670;6.286;2022-07-18T04:01:18;15.90;99.90
52697;DHT22;38593;52.670;6.286;2022-07-18T04:03:44;15.90;99.90
52697;DHT22;38593;52.670;6.286;2022-07-18T04:06:09;15.90;99.90
52697;DHT22;38593;52.670;6.286;2022-07-18T04:08:35;15.90;99.90
52697;DHT22;38593;52.670;6.286;2022-07-18T04:11:00;15.90;99.90
52697;DHT22;38593;52.670;6.286;2022-07-18T04:13:26;15.90;99.90
52697;DHT22;38593;52.670;6.286;2022-07-18T04:15:51;15.90;99.90
52697;DHT22;38593;52.670;6.286;2022-07-18T04:18:17;16.00;99.90
52697;DHT22;38593;52.670;6.286;2022-07-18T04:20:42;16.00;99.90
52697;DHT22;38593;52.670;6.286;2022-07-18T04:23:08;16.00;99.90
52697;DHT22;38593;52.670;6.286;2022-07-18T04:25:35;16.00;99.90
52697;DHT22;38593;52.670;6.286;2022-07-18T04:28:02;16.10;99.90
52697;DHT22;38593;52.670;6.286;2022-07-18T04:30:28;16.10;99.90
52697;DHT22;38593;52.670;6.286;2022-07-18T04:32:54;16.10;99.90
52697;DHT22;38593;52.670;6.286;2022-07-18T04:35:20;16.10;99.90
52697;DHT22;38593;52.670;6.286;2022-07-18T04:37:46;16.10;99.90
52697;DHT22;38593;52.670;6.286;2022-07-18T04:40:11;16.10;99.90
52697;DHT22;38593;52.670;6.286;2022-07-18T04:42:37;16.10;99.90
52697;DHT22;38593;52.670;6.286;2022-07-18T04:45:03;16.20;99.90
52697;DHT22;38593;52.670;6.286;2022-07-18T04:47:30;16.20;99.90
52697;DHT22;38593;52.670;6.286;2022-07-18T04:49:55;16.30;99.90
52697;DHT22;38593;52.670;6.286;2022-07-18T04:52:21;16.30;99.90
52697;DHT22;38593;52.670;6.286;2022-07-18T04:54:46;16.40;99.90
52697;DHT22;38593;52.670;6.286;2022-07-18T04:57:12;16.30;99.90
52697;DHT22;38593;52.670;6.286;2022-07-18T04:59:42;16.40;99.90
52697;DHT22;38593;52.670;6.286;2022-07-18T05:02:08;16.50;99.90
52697;DHT22;38593;52.670;6.286;2022-07-18T05:04:34;16.50;99.90
52697;DHT22;38593;52.670;6.286;2022-07-18T05:07:00;16.60;99.90
52697;DHT22;38593;52.670;6.286;2022-07-18T05:09:26;16.60;99.90
52697;DHT22;38593;52.670;6.286;2022-07-18T05:11:51;16.60;99.80
52697;DHT22;38593;52.670;6.286;2022-07-18T05:14:17;16.70;99.70
52697;DHT22;38593;52.670;6.286;2022-07-18T05:16:42;16.80;99.40
52697;DHT22;38593;52.670;6.286;2022-07-18T05:19:08;16.80;99.20
52697;DHT22;38593;52.670;6.286;2022-07-18T05:21:33;16.90;99.20
52697;DHT22;38593;52.670;6.286;2022-07-18T05:23:59;16.90;99.10
52697;DHT22;38593;52.670;6.286;2022-07-18T05:26:24;16.90;99.20
52697;DHT22;38593;52.670;6.286;2022-07-18T05:28:50;17.00;99.30
52697;DHT22;38593;52.670;6.286;2022-07-18T05:31:15;17.10;99.10
52697;DHT22;38593;52.670;6.286;2022-07-18T05:33:41;17.10;99.00
52697;DHT22;38593;52.670;6.286;2022-07-18T05:36:06;17.20;99.00
52697;DHT22;38593;52.670;6.286;2022-07-18T05:38:32;17.20;99.00
52697;DHT22;38593;52.670;6.286;2022-07-18T05:40:58;17.20;99.20
52697;DHT22;38593;52.670;6.286;2022-07-18T05:43:23;17.20;98.90
52697;DHT22;38593;52.670;6.286;2022-07-18T05:45:49;17.30;98.80
52697;DHT22;38593;52.670;6.286;2022-07-18T05:48:14;17.30;98.60
52697;DHT22;38593;52.670;6.286;2022-07-18T05:50:40;17.30;98.60
52697;DHT22;38593;52.670;6.286;2022-07-18T05:53:05;17.30;98.60
52697;DHT22;38593;52.670;6.286;2022-07-18T05:55:31;17.40;98.50
52697;DHT22;38593;52.670;6.286;2022-07-18T05:57:56;17.40;98.40
52697;DHT22;38593;52.670;6.286;2022-07-18T06:00:22;17.40;98.40
52697;DHT22;38593;52.670;6.286;2022-07-18T06:02:48;17.50;98.40
52697;DHT22;38593;52.670;6.286;2022-07-18T06:05:14;17.50;98.50
52697;DHT22;38593;52.670;6.286;2022-07-18T06:07:39;17.60;98.60
52697;DHT22;38593;52.670;6.286;2022-07-18T06:10:05;17.50;98.50
52697;DHT22;38593;52.670;6.286;2022-07-18T06:12:30;17.60;98.40
52697;DHT22;38593;52.670;6.286;2022-07-18T06:14:57;17.70;98.50
52697;DHT22;38593;52.670;6.286;2022-07-18T06:17:22;17.70;98.20
52697;DHT22;38593;52.670;6.286;2022-07-18T06:19:48;17.70;98.20
52697;DHT22;38593;52.670;6.286;2022-07-18T06:22:13;17.50;98.10
52697;DHT22;38593;52.670;6.286;2022-07-18T06:24:39;17.90;98.20
52697;DHT22;38593;52.670;6.286;2022-07-18T06:27:04;17.90;98.10
52697;DHT22;38593;52.670;6.286;2022-07-18T06:29:30;18.10;98.00
52697;DHT22;38593;52.670;6.286;2022-07-18T06:31:55;18.20;97.90
52697;DHT22;38593;52.670;6.286;2022-07-18T06:34:21;18.20;97.80
52697;DHT22;38593;52.670;6.286;2022-07-18T06:36:46;18.30;98.00
52697;DHT22;38593;52.670;6.286;2022-07-18T06:39:12;18.30;97.80
52697;DHT22;38593;52.670;6.286;2022-07-18T06:41:38;18.30;97.70
52697;DHT22;38593;52.670;6.286;2022-07-18T06:44:04;18.50;97.90
52697;DHT22;38593;52.670;6.286;2022-07-18T06:46:30;18.50;98.10
52697;DHT22;38593;52.670;6.286;2022-07-18T06:48:55;18.60;97.90
52697;DHT22;38593;52.670;6.286;2022-07-18T06:51:21;18.70;98.00
52697;DHT22;38593;52.670;6.286;2022-07-18T06:53:46;18.80;98.00
52697;DHT22;38593;52.670;6.286;2022-07-18T06:56:12;18.90;98.00
52697;DHT22;38593;52.670;6.286;2022-07-18T06:58:37;19.00;97.40
52697;DHT22;38593;52.670;6.286;2022-07-18T07:01:03;19.10;97.30
52697;DHT22;38593;52.670;6.286;2022-07-18T07:03:28;19.10;97.10
52697;DHT22;38593;52.670;6.286;2022-07-18T07:05:54;19.30;96.70
52697;DHT22;38593;52.670;6.286;2022-07-18T07:08:19;19.40;96.50
52697;DHT22;38593;52.670;6.286;2022-07-18T07:10:45;19.50;96.60
52697;DHT22;38593;52.670;6.286;2022-07-18T07:13:10;19.60;96.30
52697;DHT22;38593;52.670;6.286;2022-07-18T07:15:36;19.70;96.30
52697;DHT22;38593;52.670;6.286;2022-07-18T07:18:02;19.80;95.80
52697;DHT22;38593;52.670;6.286;2022-07-18T07:20:27;19.80;95.90
52697;DHT22;38593;52.670;6.286;2022-07-18T07:22:53;19.90;95.80
52697;DHT22;38593;52.670;6.286;2022-07-18T07:25:20;19.90;96.00
52697;DHT22;38593;52.670;6.286;2022-07-18T07:27:46;20.10;95.90
52697;DHT22;38593;52.670;6.286;2022-07-18T07:30:12;20.10;96.00
52697;DHT22;38593;52.670;6.286;2022-07-18T07:32:39;20.30;96.10
52697;DHT22;38593;52.670;6.286;2022-07-18T07:35:05;20.40;96.00
52697;DHT22;38593;52.670;6.286;2022-07-18T07:37:32;20.50;95.80
52697;DHT22;38593;52.670;6.286;2022-07-18T07:39:58;20.60;95.80
52697;DHT22;38593;52.670;6.286;2022-07-18T07:42:24;20.70;95.30
52697;DHT22;38593;52.670;6.286;2022-07-18T07:44:49;20.70;95.40
52697;DHT22;38593;52.670;6.286;2022-07-18T07:47:15;20.90;94.80
52697;DHT22;38593;52.670;6.286;2022-07-18T07:49:40;21.00;94.50
52697;DHT22;38593;52.670;6.286;2022-07-18T07:52:06;21.10;93.80
52697;DHT22;38593;52.670;6.286;2022-07-18T07:54:31;21.20;94.10
52697;DHT22;38593;52.670;6.286;2022-07-18T07:56:57;21.20;93.80
52697;DHT22;38593;52.670;6.286;2022-07-18T07:59:22;21.30;93.70
52697;DHT22;38593;52.670;6.286;2022-07-18T08:01:48;21.40;93.40
52697;DHT22;38593;52.670;6.286;2022-07-18T08:04:13;21.50;93.20
52697;DHT22;38593;52.670;6.286;2022-07-18T08:06:39;21.50;93.30
52697;DHT22;38593;52.670;6.286;2022-07-18T08:09:04;21.70;93.20
52697;DHT22;38593;52.670;6.286;2022-07-18T08:11:32;21.80;93.20
52697;DHT22;38593;52.670;6.286;2022-07-18T08:13:57;21.90;92.30
52697;DHT22;38593;52.670;6.286;2022-07-18T08:16:23;21.90;92.50
52697;DHT22;38593;52.670;6.286;2022-07-18T08:18:48;22.10;92.60
52697;DHT22;38593;52.670;6.286;2022-07-18T08:21:14;22.20;91.80
52697;DHT22;38593;52.670;6.286;2022-07-18T08:23:39;22.40;92.00
52697;DHT22;38593;52.670;6.286;2022-07-18T08:26:05;22.60;92.10
52697;DHT22;38593;52.670;6.286;2022-07-18T08:28:30;22.80;91.80
52697;DHT22;38593;52.670;6.286;2022-07-18T08:30:56;23.00;91.40
52697;DHT22;38593;52.670;6.286;2022-07-18T08:33:21;23.20;91.20
52697;DHT22;38593;52.670;6.286;2022-07-18T08:35:47;23.40;91.10
52697;DHT22;38593;52.670;6.286;2022-07-18T08:38:13;23.50;90.60
52697;DHT22;38593;52.670;6.286;2022-07-18T08:40:38;23.60;87.70
52697;DHT22;38593;52.670;6.286;2022-07-18T08:43:04;23.70;89.30
52697;DHT22;38593;52.670;6.286;2022-07-18T08:45:29;23.90;88.50
52697;DHT22;38593;52.670;6.286;2022-07-18T08:47:55;24.10;88.40
52697;DHT22;38593;52.670;6.286;2022-07-18T08:50:21;24.30;88.20
52697;DHT22;38593;52.670;6.286;2022-07-18T08:52:46;24.40;86.80
52697;DHT22;38593;52.670;6.286;2022-07-18T08:55:12;24.50;88.20
52697;DHT22;38593;52.670;6.286;2022-07-18T08:57:39;24.60;86.60
52697;DHT22;38593;52.670;6.286;2022-07-18T09:00:08;24.80;86.30
52697;DHT22;38593;52.670;6.286;2022-07-18T09:02:34;25.00;83.80
52697;DHT22;38593;52.670;6.286;2022-07-18T09:05:01;25.10;84.80
52697;DHT22;38593;52.670;6.286;2022-07-18T09:07:28;25.30;82.50
52697;DHT22;38593;52.670;6.286;2022-07-18T09:09:55;25.50;82.70
52697;DHT22;38593;52.670;6.286;2022-07-18T09:12:22;25.70;82.50
52697;DHT22;38593;52.670;6.286;2022-07-18T09:14:48;25.90;78.20
52697;DHT22;38593;52.670;6.286;2022-07-18T09:17:24;26.00;78.00
52697;DHT22;38593;52.670;6.286;2022-07-18T09:20:02;26.00;76.70
52697;DHT22;38593;52.670;6.286;2022-07-18T09:22:32;26.30;77.50
52697;DHT22;38593;52.670;6.286;2022-07-18T09:27:34;26.70;76.50
52697;DHT22;38593;52.670;6.286;2022-07-18T09:32:35;26.90;76.60
52697;DHT22;38593;52.670;6.286;2022-07-18T09:35:08;27.00;73.80
52697;DHT22;38593;52.670;6.286;2022-07-18T09:37:34;27.00;70.10
52697;DHT22;38593;52.670;6.286;2022-07-18T09:40:19;26.90;70.50
52697;DHT22;38593;52.670;6.286;2022-07-18T09:42:48;26.90;70.40
52697;DHT22;38593;52.670;6.286;2022-07-18T09:45:14;27.10;71.60
52697;DHT22;38593;52.670;6.286;2022-07-18T09:47:53;27.30;68.60
52697;DHT22;38593;52.670;6.286;2022-07-18T09:50:20;27.50;69.60
52697;DHT22;38593;52.670;6.286;2022-07-18T09:52:54;27.60;69.30
52697;DHT22;38593;52.670;6.286;2022-07-18T09:55:20;27.70;68.70
52697;DHT22;38593;52.670;6.286;2022-07-18T09:57:46;27.90;66.20
52697;DHT22;38593;52.670;6.286;2022-07-18T10:00:21;28.00;66.20
52697;DHT22;38593;52.670;6.286;2022-07-18T10:02:46;28.10;65.20
52697;DHT22;38593;52.670;6.286;2022-07-18T10:05:12;28.10;64.10
52697;DHT22;38593;52.670;6.286;2022-07-18T10:07:38;28.10;64.70
52697;DHT22;38593;52.670;6.286;2022-07-18T10:10:04;28.10;64.30
52697;DHT22;38593;52.670;6.286;2022-07-18T10:12:29;28.00;63.10
52697;DHT22;38593;52.670;6.286;2022-07-18T10:14:56;28.10;63.20
52697;DHT22;38593;52.670;6.286;2022-07-18T10:17:21;28.10;64.20
52697;DHT22;38593;52.670;6.286;2022-07-18T10:19:47;28.10;63.60
52697;DHT22;38593;52.670;6.286;2022-07-18T10:22:13;28.20;62.80
52697;DHT22;38593;52.670;6.286;2022-07-18T10:24:39;28.30;61.70
52697;DHT22;38593;52.670;6.286;2022-07-18T10:27:15;28.20;63.00
52697;DHT22;38593;52.670;6.286;2022-07-18T10:32:32;28.10;62.90
52697;DHT22;38593;52.670;6.286;2022-07-18T10:34:58;28.10;61.80
52697;DHT22;38593;52.670;6.286;2022-07-18T10:37:24;28.10;60.00
52697;DHT22;38593;52.670;6.286;2022-07-18T10:39:50;28.10;60.80
52697;DHT22;38593;52.670;6.286;2022-07-18T10:42:16;28.10;62.20
52697;DHT22;38593;52.670;6.286;2022-07-18T10:44:44;28.10;61.90
52697;DHT22;38593;52.670;6.286;2022-07-18T10:47:11;28.10;60.70
52697;DHT22;38593;52.670;6.286;2022-07-18T10:57:35;28.00;61.50
52697;DHT22;38593;52.670;6.286;2022-07-18T11:00:02;28.00;61.80
52697;DHT22;38593;52.670;6.286;2022-07-18T11:03:07;28.00;59.90
52697;DHT22;38593;52.670;6.286;2022-07-18T11:13:21;28.00;61.10
52697;DHT22;38593;52.670;6.286;2022-07-18T11:16:20;28.00;59.50
52697;DHT22;38593;52.670;6.286;2022-07-18T11:23:49;28.10;57.90
52697;DHT22;38593;52.670;6.286;2022-07-18T11:26:22;28.00;58.20
52697;DHT22;38593;52.670;6.286;2022-07-18T11:28:48;28.00;59.00
52697;DHT22;38593;52.670;6.286;2022-07-18T11:31:14;28.00;57.90
52697;DHT22;38593;52.670;6.286;2022-07-18T11:33:43;28.10;58.10
52697;DHT22;38593;52.670;6.286;2022-07-18T11:36:10;28.10;57.30
52697;DHT22;38593;52.670;6.286;2022-07-18T11:38:39;28.10;57.50
52697;DHT22;38593;52.670;6.286;2022-07-18T11:41:05;28.10;57.30
52697;DHT22;38593;52.670;6.286;2022-07-18T11:43:31;28.20;57.40
52697;DHT22;38593;52.670;6.286;2022-07-18T11:46:06;28.20;56.90
52697;DHT22;38593;52.670;6.286;2022-07-18T11:48:32;28.30;56.90
52697;DHT22;38593;52.670;6.286;2022-07-18T11:50:58;28.30;56.70
52697;DHT22;38593;52.670;6.286;2022-07-18T11:53:24;28.30;57.90
52697;DHT22;38593;52.670;6.286;2022-07-18T11:55:49;28.40;57.80
52697;DHT22;38593;52.670;6.286;2022-07-18T11:58:16;28.50;57.10
52697;DHT22;38593;52.670;6.286;2022-07-18T12:00:42;28.60;56.70
52697;DHT22;38593;52.670;6.286;2022-07-18T12:03:09;28.60;57.60
52697;DHT22;38593;52.670;6.286;2022-07-18T12:05:36;28.70;56.20
52697;DHT22;38593;52.670;6.286;2022-07-18T12:08:23;28.70;55.80
52697;DHT22;38593;52.670;6.286;2022-07-18T12:18:50;28.50;55.80
52697;DHT22;38593;52.670;6.286;2022-07-18T12:21:16;28.60;55.70
52697;DHT22;38593;52.670;6.286;2022-07-18T12:23:41;28.80;55.70
52697;DHT22;38593;52.670;6.286;2022-07-18T12:26:07;29.00;56.30
52697;DHT22;38593;52.670;6.286;2022-07-18T12:28:32;29.10;52.50
52697;DHT22;38593;52.670;6.286;2022-07-18T12:30:58;29.20;53.90
52697;DHT22;38593;52.670;6.286;2022-07-18T12:33:24;29.30;54.90
52697;DHT22;38593;52.670;6.286;2022-07-18T12:35:56;29.20;54.60
52697;DHT22;38593;52.670;6.286;2022-07-18T12:38:21;29.30;52.90
52697;DHT22;38593;52.670;6.286;2022-07-18T12:41:08;29.20;53.90
52697;DHT22;38593;52.670;6.286;2022-07-18T12:45:59;29.30;54.60
52697;DHT22;38593;52.670;6.286;2022-07-18T12:48:29;29.40;51.20
52697;DHT22;38593;52.670;6.286;2022-07-18T12:51:07;29.50;53.50
52697;DHT22;38593;52.670;6.286;2022-07-18T12:53:35;29.60;53.60
52697;DHT22;38593;52.670;6.286;2022-07-18T12:56:01;29.60;55.10
52697;DHT22;38593;52.670;6.286;2022-07-18T12:58:26;29.70;53.80
52697;DHT22;38593;52.670;6.286;2022-07-18T13:00:52;29.70;53.80
52697;DHT22;38593;52.670;6.286;2022-07-18T13:03:17;29.90;54.90
52697;DHT22;38593;52.670;6.286;2022-07-18T13:05:43;29.90;53.50
52697;DHT22;38593;52.670;6.286;2022-07-18T13:08:08;30.10;53.90
52697;DHT22;38593;52.670;6.286;2022-07-18T13:10:36;30.20;54.10
52697;DHT22;38593;52.670;6.286;2022-07-18T13:13:03;30.30;53.40
52697;DHT22;38593;52.670;6.286;2022-07-18T13:15:28;30.30;52.60
52697;DHT22;38593;52.670;6.286;2022-07-18T13:17:54;30.40;53.50
52697;DHT22;38593;52.670;6.286;2022-07-18T13:20:20;30.50;53.40
52697;DHT22;38593;52.670;6.286;2022-07-18T13:22:45;30.60;53.50
52697;DHT22;38593;52.670;6.286;2022-07-18T13:25:11;30.60;51.10
52697;DHT22;38593;52.670;6.286;2022-07-18T13:27:37;30.70;52.60
52697;DHT22;38593;52.670;6.286;2022-07-18T13:30:03;30.80;52.30
52697;DHT22;38593;52.670;6.286;2022-07-18T13:32:29;30.90;52.20
52697;DHT22;38593;52.670;6.286;2022-07-18T13:34:55;31.00;52.30
52697;DHT22;38593;52.670;6.286;2022-07-18T13:37:20;31.10;52.70
52697;DHT22;38593;52.670;6.286;2022-07-18T13:39:46;31.00;52.60
52697;DHT22;38593;52.670;6.286;2022-07-18T13:42:12;30.90;52.30
52697;DHT22;38593;52.670;6.286;2022-07-18T13:44:37;30.90;52.40
52697;DHT22;38593;52.670;6.286;2022-07-18T13:47:03;30.90;53.40
52697;DHT22;38593;52.670;6.286;2022-07-18T13:49:28;31.00;53.30
52697;DHT22;38593;52.670;6.286;2022-07-18T13:51:54;31.20;53.50
52697;DHT22;38593;52.670;6.286;2022-07-18T13:54:19;31.30;53.00
52697;DHT22;38593;52.670;6.286;2022-07-18T13:56:45;31.30;50.60
52697;DHT22;38593;52.670;6.286;2022-07-18T13:59:11;31.40;51.20
52697;DHT22;38593;52.670;6.286;2022-07-18T14:01:36;31.50;50.30
52697;DHT22;38593;52.670;6.286;2022-07-18T14:04:02;31.50;49.70
52697;DHT22;38593;52.670;6.286;2022-07-18T14:06:28;31.60;51.20
52697;DHT22;38593;52.670;6.286;2022-07-18T14:08:53;31.60;50.10
52697;DHT22;38593;52.670;6.286;2022-07-18T14:11:19;31.70;51.30
52697;DHT22;38593;52.670;6.286;2022-07-18T14:13:44;31.80;51.60
52697;DHT22;38593;52.670;6.286;2022-07-18T14:16:12;31.70;50.80
52697;DHT22;38593;52.670;6.286;2022-07-18T14:18:37;31.80;51.10
52697;DHT22;38593;52.670;6.286;2022-07-18T14:21:03;31.80;48.70
52697;DHT22;38593;52.670;6.286;2022-07-18T14:23:28;31.80;50.50
52697;DHT22;38593;52.670;6.286;2022-07-18T14:25:54;31.80;50.00
52697;DHT22;38593;52.670;6.286;2022-07-18T14:28:19;31.80;50.80
52697;DHT22;38593;52.670;6.286;2022-07-18T14:30:45;31.80;50.90
52697;DHT22;38593;52.670;6.286;2022-07-18T14:33:10;31.90;50.40
52697;DHT22;38593;52.670;6.286;2022-07-18T14:35:36;31.90;50.20
52697;DHT22;38593;52.670;6.286;2022-07-18T14:38:01;31.90;51.10
52697;DHT22;38593;52.670;6.286;2022-07-18T14:40:27;31.80;50.50
52697;DHT22;38593;52.670;6.286;2022-07-18T14:42:52;31.60;51.00
52697;DHT22;38593;52.670;6.286;2022-07-18T14:45:18;31.50;50.90
52697;DHT22;38593;52.670;6.286;2022-07-18T14:47:43;31.50;51.90
52697;DHT22;38593;52.670;6.286;2022-07-18T14:50:09;31.60;51.20
52697;DHT22;38593;52.670;6.286;2022-07-18T14:52:35;31.70;51.50
52697;DHT22;38593;52.670;6.286;2022-07-18T14:55:02;31.80;50.90
52697;DHT22;38593;52.670;6.286;2022-07-18T14:57:28;31.80;50.40
52697;DHT22;38593;52.670;6.286;2022-07-18T14:59:53;31.90;50.60
52697;DHT22;38593;52.670;6.286;2022-07-18T15:02:19;32.00;49.70
52697;DHT22;38593;52.670;6.286;2022-07-18T15:04:44;32.10;50.90
52697;DHT22;38593;52.670;6.286;2022-07-18T15:07:10;32.10;50.60
52697;DHT22;38593;52.670;6.286;2022-07-18T15:09:35;32.20;50.10
52697;DHT22;38593;52.670;6.286;2022-07-18T15:12:01;32.20;49.80
52697;DHT22;38593;52.670;6.286;2022-07-18T15:14:27;32.30;51.50
52697;DHT22;38593;52.670;6.286;2022-07-18T15:16:53;32.40;50.70
52697;DHT22;38593;52.670;6.286;2022-07-18T15:19:18;32.40;50.00
52697;DHT22;38593;52.670;6.286;2022-07-18T15:21:44;32.50;50.80
52697;DHT22;38593;52.670;6.286;2022-07-18T15:24:09;32.50;50.30
52697;DHT22;38593;52.670;6.286;2022-07-18T15:26:35;32.50;49.60
52697;DHT22;38593;52.670;6.286;2022-07-18T15:29:00;32.50;49.60
52697;DHT22;38593;52.670;6.286;2022-07-18T15:31:26;32.50;49.50
52697;DHT22;38593;52.670;6.286;2022-07-18T15:33:52;32.50;50.90
52697;DHT22;38593;52.670;6.286;2022-07-18T15:36:17;32.60;50.10
52697;DHT22;38593;52.670;6.286;2022-07-18T15:38:43;32.70;50.40
52697;DHT22;38593;52.670;6.286;2022-07-18T15:41:09;32.60;50.60
52697;DHT22;38593;52.670;6.286;2022-07-18T15:43:35;32.60;49.70
52697;DHT22;38593;52.670;6.286;2022-07-18T15:46:00;32.50;48.70
52697;DHT22;38593;52.670;6.286;2022-07-18T15:48:26;32.50;49.60
52697;DHT22;38593;52.670;6.286;2022-07-18T15:50:51;32.50;49.70
52697;DHT22;38593;52.670;6.286;2022-07-18T15:53:17;32.50;49.80
52697;DHT22;38593;52.670;6.286;2022-07-18T15:55:43;32.40;50.00
52697;DHT22;38593;52.670;6.286;2022-07-18T15:58:08;32.40;49.60
52697;DHT22;38593;52.670;6.286;2022-07-18T16:00:34;32.40;49.60
52697;DHT22;38593;52.670;6.286;2022-07-18T16:02:59;32.40;49.60